Time;durP1;ratioP1;P1;durP2;ratioP2;P2;SDS_P1;SDS_P2;PMS_P1;PMS_P2;Temp;Humidity;BMP_temperature;BMP_pressure;BME280_temperature;BME280_humidity;BME280_pressure;Samples;Min_cycle;Max_cycle;Signal;HPM_P1;HPM_P2
2023/06/27 00:01:08;;;;;;;2.13;1.50;;;19.40;99.90;;;;;;4993203;28;20204;-68
2023/06/27 00:03:34;;;;;;;5.90;0.95;;;19.20;99.90;;;;;;4996324;28;20763;-68
2023/06/27 00:06:00;;;;;;;0.88;0.88;;;19.10;99.90;;;;;;5012814;28;20234;-68
2023/06/27 00:08:27;;;;;;;0.50;0.50;;;19.20;99.90;;;;;;5012677;28;20202;-68
2023/06/27 00:10:53;;;;;;;6.82;1.65;;;19.40;99.90;;;;;;5012948;28;20210;-68
2023/06/27 00:13:20;;;;;;;1.15;0.82;;;19.50;99.90;;;;;;5012502;28;20198;-68
2023/06/27 00:15:52;;;;;;;0.60;0.60;;;19.60;99.90;;;;;;5012519;28;20213;-68
2023/06/27 00:18:21;;;;;;;1.20;0.80;;;19.70;99.90;;;;;;5011920;28;20662;-68
2023/06/27 00:20:50;;;;;;;0.88;0.85;;;19.70;99.90;;;;;;5011723;28;20194;-67
2023/06/27 00:23:27;;;;;;;0.90;0.88;;;19.60;99.90;;;;;;5001252;28;20199;-67
2023/06/27 00:25:53;;;;;;;0.40;0.40;;;19.50;99.90;;;;;;4992230;28;20274;-67
2023/06/27 00:28:18;;;;;;;0.60;0.60;;;19.40;99.90;;;;;;4992015;28;20200;-68
2023/06/27 00:30:44;;;;;;;0.70;0.70;;;19.30;99.90;;;;;;4991629;28;20259;-68
2023/06/27 00:33:10;;;;;;;0.77;0.75;;;19.30;99.90;;;;;;4991718;28;20206;-68
2023/06/27 00:35:38;;;;;;;0.68;0.68;;;19.40;99.90;;;;;;4991908;28;20200;-68
2023/06/27 00:38:04;;;;;;;0.90;0.70;;;19.50;99.90;;;;;;5006678;28;20195;-69
2023/06/27 00:40:30;;;;;;;0.93;0.80;;;19.50;99.90;;;;;;5011670;28;20722;-68
2023/06/27 00:42:56;;;;;;;1.30;0.90;;;19.30;99.90;;;;;;5012377;28;20590;-67
2023/06/27 00:45:23;;;;;;;0.98;0.75;;;18.90;99.90;;;;;;5011613;28;20297;-68
2023/06/27 00:47:51;;;;;;;0.65;0.45;;;18.60;99.90;;;;;;5012074;28;20218;-67
2023/06/27 00:50:19;;;;;;;0.50;0.50;;;18.50;99.90;;;;;;5011938;28;20206;-68
2023/06/27 00:52:46;;;;;;;0.60;0.60;;;18.60;99.90;;;;;;5000368;28;20261;-67
2023/06/27 00:55:11;;;;;;;1.00;0.77;;;18.70;99.90;;;;;;4992093;28;20628;-67
2023/06/27 00:57:37;;;;;;;1.23;0.73;;;18.90;99.90;;;;;;4992017;28;20192;-67
2023/06/27 01:00:05;;;;;;;1.50;0.70;;;19.00;99.90;;;;;;4997145;28;20194;-67
2023/06/27 01:02:31;;;;;;;0.98;0.85;;;19.00;99.90;;;;;;5011595;23;20397;-69
2023/06/27 01:04:56;;;;;;;0.45;0.45;;;18.80;99.90;;;;;;4988431;28;20199;-70
2023/06/27 01:07:57;;;;;;;0.65;0.65;;;18.50;99.90;;;;;;4991699;28;20198;-69
2023/06/27 01:10:46;;;;;;;1.10;0.52;;;18.40;99.90;;;;;;4978431;28;20208;-70
2023/06/27 01:13:27;;;;;;;0.88;0.88;;;18.50;99.90;;;;;;4991903;28;20682;-69
2023/06/27 01:15:53;;;;;;;0.93;0.60;;;18.70;99.90;;;;;;4974186;28;20705;-69
2023/06/27 01:18:21;;;;;;;1.95;1.17;;;18.80;99.90;;;;;;4991970;28;20635;-70
2023/06/27 01:20:49;;;;;;;0.47;0.47;;;18.70;99.90;;;;;;4991601;28;20191;-70
2023/06/27 01:23:22;;;;;;;0.47;0.47;;;18.40;99.90;;;;;;4991578;28;20697;-69
2023/06/27 01:25:50;;;;;;;0.60;0.60;;;18.30;99.90;;;;;;4991629;28;20211;-69
2023/06/27 01:28:17;;;;;;;0.60;0.60;;;18.50;99.90;;;;;;4991511;28;20394;-70
2023/06/27 01:30:43;;;;;;;0.65;0.65;;;18.70;99.90;;;;;;4991469;28;20192;-71
2023/06/27 01:33:22;;;;;;;0.40;0.40;;;18.70;99.90;;;;;;4986924;28;20203;-70
2023/06/27 01:35:56;;;;;;;0.70;0.70;;;18.80;99.90;;;;;;4972252;28;20187;-69
2023/06/27 01:38:42;;;;;;;1.55;1.00;;;18.90;99.90;;;;;;4971373;28;20200;-70
2023/06/27 01:41:12;;;;;;;0.80;0.75;;;19.00;99.90;;;;;;4972534;28;20220;-70
2023/06/27 01:43:40;;;;;;;0.65;0.65;;;18.90;99.90;;;;;;4971735;28;20662;-70
2023/06/27 01:46:08;;;;;;;0.73;0.73;;;19.00;99.90;;;;;;4972008;28;20215;-70
2023/06/27 01:48:35;;;;;;;0.80;0.80;;;19.10;99.90;;;;;;4971324;28;20200;-69
2023/06/27 01:51:01;;;;;;;0.75;0.75;;;19.20;99.90;;;;;;4972205;28;20253;-70
2023/06/27 01:53:27;;;;;;;0.70;0.70;;;19.30;99.90;;;;;;4972143;28;20201;-70
2023/06/27 01:55:52;;;;;;;0.63;0.63;;;19.30;99.90;;;;;;4973888;28;20201;-69
2023/06/27 01:58:18;;;;;;;1.15;0.95;;;19.20;99.90;;;;;;4990887;28;20219;-69
2023/06/27 02:00:44;;;;;;;2.35;1.00;;;18.90;99.90;;;;;;4985264;28;20615;-69
2023/06/27 02:03:09;;;;;;;1.85;0.98;;;18.80;99.90;;;;;;4971083;28;20315;-68
2023/06/27 02:05:35;;;;;;;0.65;0.65;;;18.80;99.90;;;;;;4971785;28;20218;-68
2023/06/27 02:08:01;;;;;;;0.75;0.75;;;18.80;99.90;;;;;;4972008;28;20663;-68
2023/06/27 02:10:26;;;;;;;0.75;0.75;;;18.70;99.90;;;;;;4954313;28;20200;-69
2023/06/27 02:12:52;;;;;;;1.52;1.05;;;18.70;99.90;;;;;;4971947;28;20200;-67
2023/06/27 02:15:18;;;;;;;1.67;0.73;;;18.90;99.90;;;;;;4972151;28;20224;-68
2023/06/27 02:17:43;;;;;;;2.00;1.42;;;18.90;99.90;;;;;;4972128;28;20565;-68
2023/06/27 02:20:09;;;;;;;2.45;1.33;;;19.00;99.90;;;;;;4971928;28;20196;-68
2023/06/27 02:22:35;;;;;;;2.03;1.73;;;19.00;99.90;;;;;;4971373;28;20963;-69
2023/06/27 02:25:01;;;;;;;1.00;0.82;;;18.90;99.90;;;;;;4971912;28;20271;-69
2023/06/27 02:27:26;;;;;;;1.20;1.13;;;18.80;99.90;;;;;;4971037;28;20192;-69
2023/06/27 02:29:52;;;;;;;1.75;0.98;;;18.80;99.90;;;;;;4971859;28;20259;-69
2023/06/27 02:32:18;;;;;;;0.77;0.77;;;18.80;99.90;;;;;;4973862;28;20199;-69
2023/06/27 02:34:43;;;;;;;0.85;0.82;;;18.90;99.90;;;;;;4957853;28;20196;-69
2023/06/27 02:37:09;;;;;;;0.68;0.68;;;18.80;99.90;;;;;;4974804;28;20683;-68
2023/06/27 02:39:35;;;;;;;1.13;1.02;;;18.70;99.90;;;;;;4973537;28;20200;-69
2023/06/27 02:42:01;;;;;;;1.05;0.95;;;18.70;99.90;;;;;;4974997;28;20206;-68
2023/06/27 02:44:26;;;;;;;0.65;0.65;;;18.70;99.90;;;;;;4974441;28;20208;-68
2023/06/27 02:46:52;;;;;;;0.82;0.82;;;18.80;99.90;;;;;;4975116;28;20714;-68
2023/06/27 02:49:18;;;;;;;0.80;0.75;;;18.80;99.90;;;;;;4974740;28;20276;-67
2023/06/27 02:51:43;;;;;;;1.00;0.90;;;18.90;99.90;;;;;;4974733;28;20220;-68
2023/06/27 02:54:09;;;;;;;0.63;0.63;;;19.00;99.90;;;;;;4992695;28;20250;-68
2023/06/27 02:56:34;;;;;;;0.57;0.57;;;19.00;99.90;;;;;;4993742;28;20539;-67
2023/06/27 02:59:00;;;;;;;2.45;1.23;;;18.90;99.90;;;;;;4994017;28;20203;-68
2023/06/27 03:01:26;;;;;;;0.93;0.82;;;18.90;99.90;;;;;;4981822;28;20207;-67
2023/06/27 03:03:52;;;;;;;0.80;0.80;;;18.90;99.90;;;;;;4985815;28;20243;-67
2023/06/27 03:06:19;;;;;;;2.20;0.93;;;18.80;99.90;;;;;;4993600;28;20211;-67
2023/06/27 03:08:45;;;;;;;1.58;0.77;;;18.80;99.90;;;;;;4993359;28;20195;-68
2023/06/27 03:11:10;;;;;;;1.02;0.95;;;18.70;99.90;;;;;;4993721;28;20187;-68
2023/06/27 03:13:36;;;;;;;1.83;1.27;;;18.40;99.90;;;;;;4993471;28;20281;-68
2023/06/27 03:16:02;;;;;;;0.93;0.77;;;18.30;99.90;;;;;;4976152;28;20205;-68
2023/06/27 03:18:28;;;;;;;0.75;0.75;;;18.40;99.90;;;;;;4993413;28;20686;-68
2023/06/27 03:20:53;;;;;;;0.55;0.50;;;18.50;99.90;;;;;;4993473;28;20203;-68
2023/06/27 03:23:19;;;;;;;1.08;0.80;;;18.60;99.90;;;;;;4993209;28;20196;-67
2023/06/27 03:25:45;;;;;;;0.98;0.90;;;18.80;99.90;;;;;;4993574;28;20207;-67
2023/06/27 03:28:10;;;;;;;1.23;1.13;;;18.80;99.90;;;;;;4993552;28;20242;-67
2023/06/27 03:30:43;;;;;;;0.93;0.73;;;18.80;99.90;;;;;;4993200;28;20696;-68
2023/06/27 03:33:11;;;;;;;0.52;0.52;;;18.90;99.90;;;;;;4993116;28;20895;-68
2023/06/27 03:35:37;;;;;;;0.47;0.47;;;18.80;99.90;;;;;;4993535;28;20670;-67
2023/06/27 03:38:03;;;;;;;0.45;0.45;;;18.90;99.90;;;;;;4978690;28;20262;-67
2023/06/27 03:40:29;;;;;;;0.60;0.60;;;19.00;99.90;;;;;;4973390;28;20236;-66
2023/06/27 03:42:56;;;;;;;1.17;0.88;;;19.10;99.90;;;;;;4973592;28;20205;-67
2023/06/27 03:45:22;;;;;;;1.25;0.52;;;19.30;99.90;;;;;;4973356;28;20193;-67
2023/06/27 03:47:48;;;;;;;1.13;0.65;;;19.20;99.90;;;;;;4973796;28;20549;-66
2023/06/27 03:50:13;;;;;;;0.90;0.90;;;19.20;99.90;;;;;;4973056;28;20203;-67
2023/06/27 03:52:39;;;;;;;0.60;0.60;;;19.20;99.90;;;;;;4973456;28;20199;-67
2023/06/27 03:55:06;;;;;;;0.75;0.65;;;19.10;99.90;;;;;;4973552;28;20196;-66
2023/06/27 03:57:31;;;;;;;0.68;0.63;;;18.90;99.90;;;;;;4955944;28;20196;-67
2023/06/27 03:59:57;;;;;;;1.02;0.63;;;18.80;99.90;;;;;;4973998;28;20656;-67
2023/06/27 04:02:23;;;;;;;1.17;1.02;;;18.50;99.90;;;;;;4972633;28;20228;-67
2023/06/27 04:04:48;;;;;;;0.40;0.40;;;18.40;99.90;;;;;;4973563;28;20266;-67
2023/06/27 04:07:14;;;;;;;0.35;0.35;;;18.50;99.90;;;;;;4973092;28;20208;-68
2023/06/27 04:09:41;;;;;;;0.63;0.63;;;18.30;99.90;;;;;;4973160;28;20667;-67
2023/06/27 04:12:08;;;;;;;1.00;0.60;;;18.20;99.90;;;;;;4973351;28;20760;-66
2023/06/27 04:14:34;;;;;;;0.43;0.43;;;18.10;99.90;;;;;;4973078;28;20506;-67
2023/06/27 04:16:59;;;;;;;10.50;1.08;;;18.00;99.90;;;;;;4955670;28;20196;-66
2023/06/27 04:19:25;;;;;;;0.82;0.80;;;17.90;99.90;;;;;;4973049;28;20662;-66
2023/06/27 04:21:51;;;;;;;0.40;0.40;;;17.80;99.90;;;;;;4973309;28;20206;-66
2023/06/27 04:24:16;;;;;;;0.60;0.60;;;17.80;99.90;;;;;;4972462;28;20201;-66
2023/06/27 04:26:42;;;;;;;0.30;0.30;;;17.60;99.90;;;;;;4972736;28;20553;-66
2023/06/27 04:29:09;;;;;;;1.90;1.25;;;17.70;99.90;;;;;;4974814;28;20203;-66
2023/06/27 04:31:34;;;;;;;1.88;1.42;;;18.00;99.90;;;;;;4992265;28;20196;-66
2023/06/27 04:34:00;;;;;;;0.40;0.40;;;18.20;99.90;;;;;;4992055;28;20222;-67
2023/06/27 04:36:27;;;;;;;0.35;0.35;;;18.40;99.90;;;;;;4990234;28;20218;-67
2023/06/27 04:38:52;;;;;;;0.55;0.55;;;18.70;99.90;;;;;;4972806;28;20672;-67
2023/06/27 04:41:18;;;;;;;1.10;0.95;;;18.80;99.90;;;;;;4972406;28;20204;-67
2023/06/27 04:43:44;;;;;;;2.38;0.60;;;19.00;99.90;;;;;;4972751;28;20203;-67
2023/06/27 04:46:09;;;;;;;0.82;0.73;;;19.10;99.90;;;;;;4972466;28;20204;-68
2023/06/27 04:48:35;;;;;;;0.50;0.47;;;19.10;99.90;;;;;;4972232;28;20693;-66
2023/06/27 04:51:01;;;;;;;0.80;0.70;;;18.90;99.90;;;;;;4972709;28;20334;-67
2023/06/27 04:53:27;;;;;;;0.50;0.50;;;18.70;99.90;;;;;;4972095;28;20197;-66
2023/06/27 04:55:53;;;;;;;0.40;0.40;;;18.50;99.90;;;;;;4972243;28;20726;-67
2023/06/27 04:58:19;;;;;;;1.48;0.75;;;18.20;99.90;;;;;;4972358;28;20435;-67
2023/06/27 05:00:47;;;;;;;1.77;0.85;;;18.10;99.90;;;;;;4972665;28;20200;-67
2023/06/27 05:03:13;;;;;;;19.88;0.80;;;18.00;99.90;;;;;;4972087;28;20244;-68
2023/06/27 05:05:39;;;;;;;0.40;0.40;;;18.00;99.90;;;;;;4972349;28;20214;-67
2023/06/27 05:08:06;;;;;;;0.70;0.70;;;18.10;99.90;;;;;;4972041;28;20189;-66
2023/06/27 05:10:32;;;;;;;0.20;0.20;;;18.10;99.90;;;;;;4972116;28;20628;-67
2023/06/27 05:12:58;;;;;;;0.50;0.50;;;18.10;99.90;;;;;;4972298;28;20772;-67
2023/06/27 05:15:24;;;;;;;0.90;0.65;;;17.90;99.90;;;;;;4972517;28;20779;-67
2023/06/27 05:17:54;;;;;;;0.30;0.30;;;17.90;99.90;;;;;;4972578;28;20188;-67
2023/06/27 05:20:20;;;;;;;0.35;0.35;;;17.80;99.90;;;;;;4971988;28;20207;-67
2023/06/27 05:22:46;;;;;;;2.42;0.70;;;17.80;99.90;;;;;;4972387;28;20286;-67
2023/06/27 05:25:12;;;;;;;0.75;0.75;;;18.00;99.90;;;;;;4972081;28;20239;-67
2023/06/27 05:27:38;;;;;;;0.43;0.43;;;18.10;99.90;;;;;;4972347;28;20642;-67
2023/06/27 05:30:04;;;;;;;0.47;0.47;;;18.00;99.90;;;;;;4972244;28;20220;-67
2023/06/27 05:32:30;;;;;;;0.50;0.50;;;17.90;99.90;;;;;;4972043;28;20192;-67
2023/06/27 05:34:55;;;;;;;0.35;0.35;;;17.90;99.90;;;;;;4972157;28;20204;-67
2023/06/27 05:37:21;;;;;;;2.92;1.15;;;17.80;99.90;;;;;;4971519;28;20570;-68
2023/06/27 05:39:47;;;;;;;30.00;0.70;;;17.70;99.90;;;;;;4972203;28;20192;-68
2023/06/27 05:42:12;;;;;;;0.50;0.50;;;17.70;99.90;;;;;;4971971;28;20207;-67
2023/06/27 05:44:38;;;;;;;3.13;0.73;;;17.80;99.90;;;;;;4971868;28;20256;-67
2023/06/27 05:47:05;;;;;;;0.40;0.40;;;17.90;99.90;;;;;;4971548;28;20208;-69
2023/06/27 05:49:31;;;;;;;0.55;0.55;;;18.00;99.90;;;;;;4971950;28;20279;-66
2023/06/27 05:51:57;;;;;;;0.55;0.52;;;18.20;99.90;;;;;;4972217;28;20227;-67
2023/06/27 05:54:23;;;;;;;0.40;0.40;;;18.80;99.90;;;;;;4971826;28;20204;-70
2023/06/27 05:56:49;;;;;;;1.00;0.88;;;19.30;99.90;;;;;;4970687;28;20660;-70
2023/06/27 05:59:15;;;;;;;0.32;0.32;;;19.60;99.90;;;;;;4972127;28;20227;-67
2023/06/27 06:01:40;;;;;;;0.82;0.60;;;19.70;99.90;;;;;;4971785;28;20208;-67
2023/06/27 06:04:06;;;;;;;1.10;0.65;;;19.70;99.90;;;;;;4972002;28;20236;-67
2023/06/27 06:06:38;;;;;;;0.40;0.40;;;19.90;99.90;;;;;;4974730;28;20215;-68
2023/06/27 06:09:05;;;;;;;0.47;0.47;;;20.20;99.90;;;;;;4975754;28;20197;-68
2023/06/27 06:11:34;;;;;;;0.20;0.20;;;20.40;99.90;;;;;;4958293;28;20563;-68
2023/06/27 06:14:03;;;;;;;1.27;0.52;;;20.60;99.90;;;;;;4975717;28;20220;-69
2023/06/27 06:16:33;;;;;;;0.60;0.50;;;20.90;99.90;;;;;;4975462;28;20203;-69
2023/06/27 06:19:00;;;;;;;0.45;0.45;;;21.00;99.90;;;;;;4975418;28;20575;-70
2023/06/27 06:21:27;;;;;;;15.95;0.73;;;20.90;99.90;;;;;;4958652;28;20200;-68
2023/06/27 06:23:53;;;;;;;0.30;0.30;;;20.70;99.90;;;;;;4994942;28;20211;-68
2023/06/27 06:26:19;;;;;;;0.28;0.28;;;20.50;99.90;;;;;;4994330;28;20207;-69
2023/06/27 06:28:45;;;;;;;0.63;0.57;;;20.30;99.90;;;;;;4994693;28;20554;-69
2023/06/27 06:31:11;;;;;;;0.50;0.50;;;20.20;99.90;;;;;;4958060;28;20397;-69
2023/06/27 06:33:41;;;;;;;0.50;0.50;;;19.90;99.90;;;;;;4975591;28;20211;-68
2023/06/27 06:36:07;;;;;;;0.47;0.47;;;19.70;99.90;;;;;;4975130;28;20192;-69
2023/06/27 06:38:33;;;;;;;0.40;0.40;;;19.60;99.90;;;;;;4974713;28;20222;-69
2023/06/27 06:40:58;;;;;;;0.75;0.75;;;19.80;99.90;;;;;;4957851;28;20276;-69
2023/06/27 06:43:25;;;;;;;0.73;0.73;;;20.00;99.90;;;;;;4974436;28;20204;-72
2023/06/27 06:45:52;;;;;;;0.38;0.38;;;20.40;99.90;;;;;;4975808;28;20246;-71
2023/06/27 06:48:19;;;;;;;0.30;0.30;;;20.60;99.90;;;;;;4957727;28;20197;-72
2023/06/27 06:50:45;;;;;;;2.83;1.20;;;20.90;99.90;;;;;;4957662;28;20204;-70
2023/06/27 06:53:11;;;;;;;0.65;0.45;;;21.10;99.90;;;;;;4975687;28;20196;-72
2023/06/27 06:55:37;;;;;;;0.40;0.40;;;20.80;99.90;;;;;;4975732;28;20204;-71
2023/06/27 06:58:04;;;;;;;0.65;0.65;;;20.50;99.90;;;;;;4975034;28;20204;-70
2023/06/27 07:00:30;;;;;;;0.98;0.80;;;20.40;99.90;;;;;;4974852;28;20287;-71
2023/06/27 07:02:58;;;;;;;0.35;0.35;;;20.60;99.90;;;;;;4974351;28;20769;-71
2023/06/27 07:05:24;;;;;;;0.75;0.75;;;20.80;99.90;;;;;;4974187;28;20203;-71
2023/06/27 07:07:50;;;;;;;0.30;0.30;;;21.40;99.90;;;;;;4974694;28;20702;-72
2023/06/27 07:10:16;;;;;;;0.40;0.40;;;21.70;99.90;;;;;;4974479;28;20577;-73
2023/06/27 07:12:41;;;;;;;0.20;0.20;;;22.10;99.90;;;;;;4974355;28;20530;-71
2023/06/27 07:15:08;;;;;;;0.45;0.45;;;22.40;99.90;;;;;;4974815;28;20231;-72
2023/06/27 07:17:34;;;;;;;0.40;0.40;;;22.30;99.90;;;;;;4974030;28;20663;-74
2023/06/27 07:20:00;;;;;;;0.30;0.30;;;22.30;99.90;;;;;;4994039;28;20254;-73
2023/06/27 07:22:26;;;;;;;0.35;0.35;;;22.40;99.90;;;;;;4993683;28;20191;-72
2023/06/27 07:24:52;;;;;;;0.22;0.22;;;22.50;99.90;;;;;;4994056;28;20615;-73
2023/06/27 07:27:17;;;;;;;0.20;0.20;;;22.20;99.90;;;;;;4976295;28;20208;-73
2023/06/27 07:29:44;;;;;;;1.40;0.85;;;22.30;99.90;;;;;;4974848;28;20192;-71
2023/06/27 07:32:11;;;;;;;0.32;0.32;;;22.40;99.90;;;;;;4974082;28;20221;-72
2023/06/27 07:34:39;;;;;;;0.30;0.30;;;22.50;99.90;;;;;;4973996;28;20189;-72
2023/06/27 07:37:05;;;;;;;0.43;0.43;;;22.70;99.90;;;;;;4973814;28;20196;-72
2023/06/27 07:39:31;;;;;;;0.60;0.60;;;22.70;99.90;;;;;;4974025;28;20727;-72
2023/06/27 07:41:57;;;;;;;0.40;0.40;;;22.50;99.90;;;;;;4956675;28;20233;-73
2023/06/27 07:44:23;;;;;;;0.70;0.70;;;22.50;99.90;;;;;;4972444;28;20204;-72
2023/06/27 07:46:48;;;;;;;0.20;0.20;;;22.30;99.90;;;;;;4974073;28;20215;-73
2023/06/27 07:49:15;;;;;;;0.20;0.20;;;22.20;99.90;;;;;;4956760;28;20216;-73
2023/06/27 07:51:42;;;;;;;0.75;0.75;;;22.30;99.90;;;;;;4973525;28;20184;-71
2023/06/27 07:54:09;;;;;;;0.40;0.40;;;22.40;99.90;;;;;;4973123;28;20199;-72
2023/06/27 07:56:35;;;;;;;0.30;0.30;;;21.90;99.90;;;;;;4973587;28;20200;-71
2023/06/27 07:59:02;;;;;;;0.32;0.32;;;21.80;99.90;;;;;;4973633;28;20250;-72
2023/06/27 08:01:28;;;;;;;0.73;0.57;;;21.70;99.90;;;;;;4973515;28;20230;-72
2023/06/27 08:03:53;;;;;;;0.38;0.38;;;21.90;99.90;;;;;;4973364;28;20259;-72
2023/06/27 08:06:19;;;;;;;0.75;0.40;;;21.90;99.90;;;;;;4973043;28;20762;-71
2023/06/27 08:08:45;;;;;;;0.30;0.30;;;21.90;99.90;;;;;;4973683;28;20203;-74
2023/06/27 08:11:11;;;;;;;0.20;0.20;;;22.00;99.90;;;;;;4972317;28;20200;-72
2023/06/27 08:13:41;;;;;;;0.30;0.30;;;22.10;99.90;;;;;;4973191;28;20279;-72
2023/06/27 08:16:10;;;;;;;0.63;0.63;;;22.20;99.90;;;;;;4991634;28;20211;-73
2023/06/27 08:18:36;;;;;;;0.73;0.73;;;21.90;99.90;;;;;;4992594;28;20676;-73
2023/06/27 08:21:02;;;;;;;1.70;0.40;;;21.90;99.90;;;;;;4992489;28;20307;-73
2023/06/27 08:23:27;;;;;;;0.45;0.45;;;21.90;99.90;;;;;;4958298;28;20687;-73
2023/06/27 08:25:54;;;;;;;0.50;0.50;;;21.90;99.90;;;;;;4973118;28;20661;-73
2023/06/27 08:28:20;;;;;;;0.30;0.30;;;21.90;99.90;;;;;;4972353;28;20172;-74
2023/06/27 08:30:46;;;;;;;0.38;0.20;;;21.80;99.90;;;;;;4955464;28;20196;-73
2023/06/27 08:33:12;;;;;;;0.45;0.45;;;21.90;99.90;;;;;;4973155;28;20199;-72
2023/06/27 08:35:38;;;;;;;0.50;0.50;;;22.10;99.90;;;;;;4972235;28;20670;-72
2023/06/27 08:38:05;;;;;;;0.20;0.20;;;22.20;99.90;;;;;;4972549;28;20575;-72
2023/06/27 08:40:34;;;;;;;0.20;0.20;;;22.20;99.90;;;;;;4972814;28;20200;-72
2023/06/27 08:43:00;;;;;;;0.43;0.43;;;22.40;99.90;;;;;;4973196;28;20596;-73
2023/06/27 08:45:26;;;;;;;0.40;0.40;;;22.50;99.90;;;;;;4972722;28;20198;-73
2023/06/27 08:47:52;;;;;;;0.22;0.22;;;22.50;99.90;;;;;;4973030;28;20196;-73
2023/06/27 08:50:21;;;;;;;0.28;0.28;;;22.20;99.90;;;;;;4972705;28;20204;-73
2023/06/27 08:53:01;;;;;;;0.32;0.30;;;22.30;99.90;;;;;;4955421;28;20208;-73
2023/06/27 08:55:36;;;;;;;0.35;0.35;;;22.40;99.90;;;;;;4972568;28;20239;-73
2023/06/27 08:58:04;;;;;;;0.30;0.30;;;22.60;99.90;;;;;;4972800;28;20206;-72
2023/06/27 09:00:31;;;;;;;0.40;0.40;;;22.40;99.90;;;;;;4972599;28;20188;-73
2023/06/27 09:02:57;;;;;;;0.30;0.30;;;22.40;99.90;;;;;;4972242;28;20231;-73
2023/06/27 09:05:23;;;;;;;0.32;0.32;;;22.40;99.90;;;;;;4972295;28;20200;-73
2023/06/27 09:07:49;;;;;;;0.40;0.40;;;22.30;99.90;;;;;;4972615;28;20184;-73
2023/06/27 09:10:15;;;;;;;0.40;0.40;;;22.50;99.90;;;;;;4972564;28;20196;-73
2023/06/27 09:12:43;;;;;;;0.40;0.40;;;22.40;99.90;;;;;;4991892;28;20722;-72
2023/06/27 09:15:10;;;;;;;0.98;0.65;;;22.60;99.90;;;;;;4990562;28;20211;-74
2023/06/27 09:17:37;;;;;;;0.55;0.55;;;22.80;99.90;;;;;;4991827;28;20195;-73
2023/06/27 09:20:05;;;;;;;0.63;0.55;;;23.00;99.90;;;;;;4953156;29;20212;-72
2023/06/27 09:22:31;;;;;;;0.30;0.30;;;23.20;99.90;;;;;;4961625;28;20297;-73
2023/06/27 09:25:14;;;;;;;0.32;0.32;;;23.40;99.90;;;;;;4971822;28;20247;-72
2023/06/27 09:27:40;;;;;;;0.75;0.60;;;23.70;99.90;;;;;;4971745;28;20688;-73
2023/06/27 09:30:07;;;;;;;0.43;0.38;;;23.90;99.90;;;;;;4972660;28;20243;-72
2023/06/27 09:32:53;;;;;;;1.08;0.70;;;23.80;99.90;;;;;;4972138;28;20227;-73
2023/06/27 09:35:20;;;;;;;3.22;1.55;;;24.10;99.90;;;;;;4953643;28;20212;-73
2023/06/27 09:37:46;;;;;;;1.05;0.95;;;24.40;99.90;;;;;;4972009;28;20558;-73
2023/06/27 09:40:27;;;;;;;0.75;0.38;;;24.20;99.90;;;;;;4973125;28;20198;-73
2023/06/27 09:42:58;;;;;;;0.52;0.52;;;24.00;99.90;;;;;;4976210;28;20220;-74
2023/06/27 09:45:29;;;;;;;0.90;0.80;;;24.00;99.90;;;;;;4975844;28;20684;-71
2023/06/27 09:47:55;;;;;;;0.95;0.85;;;23.70;99.90;;;;;;4974895;28;20228;-74
2023/06/27 09:50:31;;;;;;;1.23;0.80;;;23.40;99.90;;;;;;4976040;28;20200;-72
2023/06/27 09:53:04;;;;;;;0.47;0.47;;;23.00;99.90;;;;;;4976393;28;20188;-73
2023/06/27 09:55:30;;;;;;;1.98;1.20;;;22.90;99.90;;;;;;4975920;28;20569;-73
2023/06/27 09:57:57;;;;;;;0.52;0.52;;;23.80;99.90;;;;;;4976417;28;20246;-72
2023/06/27 10:00:26;;;;;;;0.80;0.73;;;24.20;99.90;;;;;;4975651;28;20664;-72
2023/06/27 10:02:52;;;;;;;0.70;0.70;;;24.60;99.90;;;;;;4975582;28;20255;-73
2023/06/27 10:05:20;;;;;;;2.53;0.95;;;24.90;99.90;;;;;;4975532;28;20196;-73
2023/06/27 10:07:49;;;;;;;1.88;1.02;;;24.90;99.90;;;;;;4987357;28;20608;-72
2023/06/27 10:10:15;;;;;;;1.35;0.73;;;25.50;99.90;;;;;;4995399;28;20266;-72
2023/06/27 10:12:45;;;;;;;0.70;0.50;;;25.90;99.90;;;;;;4977502;28;20254;-72
2023/06/27 10:15:12;;;;;;;2.38;0.93;;;26.30;99.90;;;;;;4984586;28;20296;-73
2023/06/27 10:17:37;;;;;;;1.40;1.02;;;26.70;99.90;;;;;;4975427;28;20695;-73
2023/06/27 10:20:08;;;;;;;1.38;0.90;;;26.00;99.90;;;;;;4975502;28;20205;-73
2023/06/27 10:22:35;;;;;;;0.30;0.30;;;25.30;99.90;;;;;;4975186;28;20208;-73
2023/06/27 10:25:05;;;;;;;1.10;1.00;;;24.80;99.90;;;;;;4975491;28;20204;-73
2023/06/27 10:27:34;;;;;;;1.38;0.95;;;24.50;99.90;;;;;;4975384;28;20339;-73
2023/06/27 10:30:19;;;;;;;2.70;0.88;;;24.70;99.90;;;;;;4975125;28;20192;-73
2023/06/27 10:32:44;;;;;;;1.75;0.73;;;24.80;99.90;;;;;;4975411;28;20195;-73
2023/06/27 10:35:30;;;;;;;1.13;1.02;;;25.00;99.90;;;;;;4974724;28;20196;-72
2023/06/27 10:38:08;;;;;;;0.43;0.43;;;25.00;99.90;;;;;;4957303;28;20208;-73
2023/06/27 10:41:03;;;;;;;0.75;0.75;;;24.90;99.90;;;;;;4975064;28;20188;-73
2023/06/27 10:43:36;;;;;;;0.82;0.82;;;24.60;99.90;;;;;;4975011;28;20198;-73
2023/06/27 10:46:10;;;;;;;0.68;0.68;;;24.20;99.90;;;;;;4975190;28;20223;-73
2023/06/27 10:48:46;;;;;;;0.60;0.60;;;24.20;99.90;;;;;;4975020;28;20268;-74
2023/06/27 10:51:16;;;;;;;0.38;0.38;;;24.20;99.90;;;;;;4974842;28;20247;-73
2023/06/27 10:53:45;;;;;;;0.60;0.60;;;24.10;99.90;;;;;;4974236;28;20192;-73
2023/06/27 10:56:15;;;;;;;0.80;0.65;;;23.90;99.90;;;;;;4975039;28;20200;-73
2023/06/27 10:58:45;;;;;;;0.30;0.30;;;24.00;99.90;;;;;;4974687;28;20196;-72
2023/06/27 11:01:14;;;;;;;0.63;0.60;;;24.30;99.90;;;;;;4957181;28;20667;-72
2023/06/27 11:03:43;;;;;;;2.45;0.43;;;25.00;99.90;;;;;;4965140;28;20266;-72
2023/06/27 11:06:09;;;;;;;0.45;0.40;;;25.50;99.90;;;;;;4993882;28;20203;-73
2023/06/27 11:08:35;;;;;;;0.75;0.50;;;25.50;99.90;;;;;;4994112;28;20223;-73
2023/06/27 11:11:05;;;;;;;3.15;0.95;;;26.10;99.90;;;;;;4986830;28;20204;-73
2023/06/27 11:13:35;;;;;;;1.05;0.68;;;26.30;99.90;;;;;;4974256;28;20192;-73
2023/06/27 11:16:02;;;;;;;0.77;0.77;;;26.40;99.90;;;;;;4974553;28;20196;-73
2023/06/27 11:18:27;;;;;;;8.40;1.00;;;26.00;99.90;;;;;;4974240;28;20192;-73
2023/06/27 11:20:55;;;;;;;0.65;0.52;;;25.40;99.90;;;;;;4974573;28;20225;-73
2023/06/27 11:23:21;;;;;;;0.85;0.85;;;24.70;99.90;;;;;;4974209;28;20235;-73
2023/06/27 11:25:48;;;;;;;5.15;0.63;;;24.20;99.90;;;;;;4974417;28;20566;-72
2023/06/27 11:28:17;;;;;;;0.68;0.68;;;23.70;99.90;;;;;;4956807;28;20222;-71
2023/06/27 11:30:43;;;;;;;1.00;0.90;;;23.30;99.90;;;;;;4974294;28;20192;-72
2023/06/27 11:33:09;;;;;;;3.97;1.27;;;22.80;99.90;;;;;;4974213;28;20252;-73
2023/06/27 11:35:36;;;;;;;0.80;0.75;;;22.40;99.90;;;;;;4973828;28;20521;-72
2023/06/27 11:38:05;;;;;;;1.40;1.03;;;22.30;99.90;;;;;;4973237;28;20884;-72
2023/06/27 11:40:31;;;;;;;3.47;0.98;;;22.20;99.90;;;;;;4973156;28;20396;-72
2023/06/27 11:43:01;;;;;;;1.70;1.05;;;21.80;99.90;;;;;;4973747;28;20675;-72
2023/06/27 11:45:27;;;;;;;1.15;1.00;;;21.00;99.90;;;;;;4973750;28;20196;-72
2023/06/27 11:47:53;;;;;;;0.47;0.47;;;20.60;99.90;;;;;;4973675;28;20284;-72
2023/06/27 11:50:19;;;;;;;0.77;0.77;;;19.80;99.90;;;;;;4973413;28;20193;-71
2023/06/27 11:52:47;;;;;;;0.70;0.70;;;19.30;99.90;;;;;;4974226;28;20246;-73
2023/06/27 11:55:13;;;;;;;0.45;0.45;;;19.20;99.90;;;;;;4956408;28;20222;-73
2023/06/27 11:57:47;;;;;;;0.30;0.30;;;19.00;99.90;;;;;;4973473;28;20255;-73
2023/06/27 12:00:18;;;;;;;0.40;0.40;;;18.80;99.90;;;;;;4984663;28;20203;-73
2023/06/27 12:02:52;;;;;;;0.77;0.65;;;18.60;99.90;;;;;;4991401;28;20238;-72
2023/06/27 12:05:19;;;;;;;2.20;1.08;;;18.50;99.90;;;;;;4992879;28;20218;-70
2023/06/27 12:08:20;;;;;;;0.40;0.40;;;18.30;99.90;;;;;;4964460;28;20216;-72
2023/06/27 12:10:52;;;;;;;0.32;0.32;;;18.00;99.90;;;;;;4943560;28;20215;-72
2023/06/27 12:13:19;;;;;;;0.55;0.55;;;18.00;99.90;;;;;;4973580;28;20193;-72
2023/06/27 12:15:46;;;;;;;0.75;0.50;;;18.00;99.90;;;;;;4973515;28;20224;-72
2023/06/27 12:18:30;;;;;;;0.45;0.45;;;18.10;99.90;;;;;;4956003;28;20215;-72
2023/06/27 12:20:56;;;;;;;0.40;0.40;;;18.50;99.90;;;;;;4955780;28;20200;-72
2023/06/27 12:23:23;;;;;;;0.45;0.45;;;18.90;99.90;;;;;;4972878;28;20196;-73
2023/06/27 12:25:48;;;;;;;0.30;0.30;;;19.00;99.90;;;;;;4973232;28;20208;-73
2023/06/27 12:28:14;;;;;;;0.20;0.20;;;19.00;99.90;;;;;;4973114;28;20196;-73
2023/06/27 12:30:41;;;;;;;0.63;0.63;;;19.20;99.90;;;;;;4973065;28;20203;-72
2023/06/27 12:33:08;;;;;;;0.30;0.30;;;19.40;99.90;;;;;;4973236;28;20215;-72
2023/06/27 12:35:34;;;;;;;0.30;0.30;;;19.90;99.90;;;;;;4973242;28;20546;-71
2023/06/27 12:38:00;;;;;;;0.65;0.60;;;20.40;99.90;;;;;;4972987;28;20255;-74
2023/06/27 12:40:26;;;;;;;0.47;0.47;;;20.70;99.90;;;;;;4972861;28;20199;-74
2023/06/27 12:42:53;;;;;;;1.58;0.43;;;21.00;99.90;;;;;;4972914;28;20284;-74
2023/06/27 12:45:20;;;;;;;1.35;0.82;;;21.40;99.90;;;;;;4973075;28;20206;-73
2023/06/27 12:47:46;;;;;;;0.40;0.40;;;21.80;99.90;;;;;;4973075;28;20208;-74